createdAt,value
2022-08-09T00:00:00.459Z,11.25
2022-08-09T00:02:29.180Z,17.52
2022-08-09T00:05:03.466Z,9.05
2022-08-09T00:07:46.434Z,12.82
2022-08-09T00:10:17.986Z,11.38
2022-08-09T00:12:52.709Z,15.15
2022-08-09T00:15:26.557Z,12.77
2022-08-09T00:18:12.538Z,10.55
2022-08-09T00:20:49.687Z,13.40
2022-08-09T00:23:55.531Z,16.67
2022-08-09T00:26:07.699Z,14.40
2022-08-09T00:28:35.759Z,15.32
2022-08-09T00:31:09.139Z,21.80
2022-08-09T00:33:53.271Z,12.43
2022-08-09T00:36:22.514Z,16.42
2022-08-09T00:38:57.097Z,13.25
2022-08-09T00:44:16.565Z,11.75
2022-08-09T00:44:25.463Z,13.23
2022-08-09T00:46:57.690Z,12.73
2022-08-09T00:49:36.953Z,18.75
2022-08-09T00:52:15.946Z,14.65
2022-08-09T00:54:49.778Z,15.15
2022-08-09T00:57:33.594Z,11.18
2022-08-09T01:00:20.592Z,14.70
2022-08-09T01:03:03.643Z,13.55
2022-08-09T01:05:55.876Z,11.82
2022-08-09T01:08:55.780Z,13.57
2022-08-09T01:12:08.380Z,18.75
2022-08-09T01:14:41.728Z,16.55
2022-08-09T01:17:21.702Z,16.55
2022-08-09T01:20:03.691Z,14.50
2022-08-09T01:22:52.105Z,13.48
2022-08-09T01:25:37.442Z,16.23
2022-08-09T01:28:10.488Z,17.05
2022-08-09T01:30:52.426Z,16.25
2022-08-09T01:36:07.340Z,13.07
2022-08-09T01:38:39.972Z,12.02
2022-08-09T01:41:26.015Z,13.75
2022-08-09T01:44:01.250Z,12.70
2022-08-09T01:46:31.732Z,16.63
2022-08-09T01:49:10.092Z,21.48
2022-08-09T01:52:07.060Z,12.10
2022-08-09T01:54:40.211Z,11.90
2022-08-09T01:57:17.819Z,12.80
2022-08-09T01:59:52.334Z,15.60
2022-08-09T02:02:30.807Z,13.52
2022-08-09T02:05:05.451Z,15.60
2022-08-09T02:08:39.641Z,12.75
2022-08-09T02:10:43.044Z,14.27
2022-08-09T02:13:25.861Z,18.60
2022-08-09T02:16:05.474Z,14.60
2022-08-09T02:18:34.154Z,17.00
2022-08-09T02:21:17.347Z,12.65
2022-08-09T02:23:58.227Z,17.88
2022-08-09T02:29:07.203Z,11.50
2022-08-09T02:42:29.348Z,16.75
2022-08-09T02:45:02.812Z,14.35
2022-08-09T02:47:33.893Z,14.38
2022-08-09T02:50:26.913Z,19.50
2022-08-09T02:53:10.180Z,21.27
2022-08-09T02:55:58.558Z,18.45
2022-08-09T03:11:29.742Z,16.30
2022-08-09T03:14:11.752Z,16.83
2022-08-09T03:16:44.836Z,16.95
2022-08-09T03:19:16.683Z,16.50
2022-08-09T03:22:00.569Z,16.40
2022-08-09T03:24:31.500Z,17.42
2022-08-09T03:27:21.510Z,13.55
2022-08-09T03:29:57.741Z,14.27
2022-08-09T03:32:31.306Z,16.13
2022-08-09T03:34:59.817Z,17.40
2022-08-09T03:37:56.492Z,16.52
2022-08-09T03:40:17.927Z,14.73
2022-08-09T03:42:46.686Z,16.02
2022-08-09T03:45:15.630Z,13.27
2022-08-09T03:47:46.832Z,13.38
2022-08-09T03:52:58.443Z,14.07
2022-08-09T03:55:26.562Z,17.98
2022-08-09T03:58:03.385Z,16.05
2022-08-09T04:00:39.174Z,21.02
2022-08-09T04:03:07.735Z,15.15
2022-08-09T04:05:40.410Z,16.67
2022-08-09T04:08:07.991Z,20.67
2022-08-09T04:10:35.938Z,20.15
2022-08-09T04:13:11.515Z,16.17
2022-08-09T04:16:18.756Z,16.63
2022-08-09T04:18:27.027Z,14.57
2022-08-09T04:20:55.683Z,25.88
2022-08-09T04:23:24.979Z,19.30
2022-08-09T04:25:54.840Z,18.73
2022-08-09T04:28:34.053Z,19.23
2022-08-09T04:31:08.303Z,19.20
2022-08-09T04:33:51.953Z,23.40
2022-08-09T04:36:26.525Z,18.73
2022-08-09T04:38:55.502Z,21.45
2022-08-09T04:41:24.445Z,18.65
2022-08-09T04:44:06.971Z,20.10
2022-08-09T04:46:59.544Z,17.52
2022-08-09T04:49:54.702Z,19.13
2022-08-09T04:52:26.958Z,18.00
2022-08-09T04:54:56.923Z,17.55
2022-08-09T04:57:25.226Z,18.90
2022-08-09T04:59:55.916Z,24.58
2022-08-09T05:02:27.102Z,19.38
2022-08-09T05:04:55.256Z,15.10
2022-08-09T05:07:23.599Z,20.75
2022-08-09T05:09:51.838Z,19.80
2022-08-09T05:12:18.834Z,19.38
2022-08-09T05:14:50.326Z,19.17
2022-08-09T05:18:39.146Z,21.10
2022-08-09T05:20:06.389Z,15.27
2022-08-09T05:23:56.722Z,17.98
2022-08-09T05:25:21.982Z,18.67
2022-08-09T05:27:51.026Z,16.85
2022-08-09T05:30:19.425Z,19.33
2022-08-09T05:32:50.837Z,18.30
2022-08-09T05:35:21.829Z,17.63
2022-08-09T05:37:51.192Z,17.20
2022-08-09T05:40:18.763Z,17.95
2022-08-09T05:42:46.969Z,18.65
2022-08-09T05:45:14.600Z,20.65
2022-08-09T05:47:51.593Z,20.17
2022-08-09T05:50:39.865Z,20.40
2022-08-09T05:53:31.971Z,17.83
2022-08-09T05:56:01.522Z,18.45
2022-08-09T05:58:28.830Z,22.73
2022-08-09T06:00:55.825Z,20.80
2022-08-09T06:03:23.155Z,15.57
2022-08-09T06:06:02.719Z,24.75
2022-08-09T06:08:33.349Z,24.05
2022-08-09T06:11:01.025Z,19.17
2022-08-09T06:13:33.933Z,21.98
2022-08-09T06:16:04.905Z,18.40
2022-08-09T06:18:33.410Z,19.30
2022-08-09T06:21:01.135Z,16.60
2022-08-09T06:23:57.357Z,21.17
2022-08-09T06:26:28.482Z,17.13
2022-08-09T06:29:00.132Z,17.33
2022-08-09T06:31:39.862Z,20.85
2022-08-09T06:34:18.849Z,18.83
2022-08-09T06:36:46.544Z,18.63
2022-08-09T06:39:13.822Z,20.25
2022-08-09T06:42:09.184Z,22.70
2022-08-09T06:44:29.636Z,14.90
2022-08-09T06:46:56.728Z,13.63
2022-08-09T06:49:44.738Z,15.63
2022-08-09T06:52:15.866Z,16.42
2022-08-09T07:41:00.981Z,13.45
2022-08-09T07:43:41.473Z,7.40
2022-08-09T09:14:59.661Z,3.75
2022-08-09T09:20:21.478Z,6.13
2022-08-09T09:22:53.305Z,4.50
2022-08-09T09:26:04.763Z,3.45
2022-08-09T09:28:39.032Z,6.05
2022-08-09T09:32:04.578Z,5.13
2022-08-09T09:34:18.042Z,5.45
2022-08-09T09:36:51.211Z,6.28
2022-08-09T09:39:42.533Z,5.80
2022-08-09T09:42:27.856Z,3.95
2022-08-09T09:45:03.231Z,4.82
2022-08-09T10:49:13.251Z,6.32
2022-08-09T10:52:03.019Z,5.68
2022-08-09T10:54:31.626Z,5.40
2022-08-09T10:57:16.952Z,4.90
2022-08-09T10:59:58.114Z,6.43
2022-08-09T11:03:14.431Z,5.32
2022-08-09T11:05:30.238Z,3.85
2022-08-09T11:08:33.337Z,4.20
2022-08-09T11:11:08.904Z,4.07
2022-08-09T11:13:50.040Z,3.50
2022-08-09T11:16:39.291Z,3.42
2022-08-09T11:19:11.193Z,3.78
2022-08-09T11:22:05.393Z,4.13
2022-08-09T11:24:58.214Z,5.78
2022-08-09T11:28:04.488Z,4.50
2022-08-09T11:30:33.762Z,5.40
2022-08-09T11:33:21.056Z,4.40
2022-08-09T11:36:00.213Z,2.20
2022-08-09T11:38:41.390Z,2.70
2022-08-09T11:41:13.047Z,6.22
2022-08-09T11:43:49.298Z,4.40
2022-08-09T11:46:26.677Z,2.97
2022-08-09T11:49:05.255Z,4.45
2022-08-09T12:32:42.288Z,4.30
2022-08-09T12:35:11.037Z,4.75
2022-08-09T12:37:50.196Z,6.30
2022-08-09T12:40:21.382Z,3.92
2022-08-09T12:42:51.879Z,12.32
2022-08-09T12:45:34.298Z,4.38
2022-08-09T12:48:20.258Z,7.63
2022-08-09T12:50:55.912Z,3.38
2022-08-09T12:53:38.590Z,6.20
2022-08-09T12:56:37.073Z,6.53
2022-08-09T12:59:13.968Z,2.30
2022-08-09T13:01:48.612Z,9.70
2022-08-09T13:04:37.196Z,3.50
2022-08-09T13:07:19.398Z,2.40
2022-08-09T13:09:55.219Z,6.30
2022-08-09T13:12:29.408Z,4.95
2022-08-09T13:18:05.230Z,4.68
2022-08-09T13:21:04.101Z,6.78
2022-08-09T13:24:06.888Z,5.72
2022-08-09T13:26:49.695Z,3.05
2022-08-09T13:29:20.782Z,4.53
2022-08-09T13:32:15.195Z,4.32
2022-08-09T14:16:17.529Z,4.05
2022-08-09T14:18:49.267Z,3.10
2022-08-09T14:21:24.962Z,5.82
2022-08-09T14:23:57.445Z,4.68
2022-08-09T14:26:32.207Z,12.57
2022-08-09T14:29:25.820Z,6.43
2022-08-09T14:31:55.360Z,6.53
2022-08-09T14:34:30.711Z,1.75
2022-08-09T14:37:05.976Z,5.88
2022-08-09T14:39:39.958Z,5.10
2022-08-09T14:42:08.172Z,2.10
2022-08-09T14:44:48.742Z,6.82
2022-08-09T14:47:42.952Z,9.25
2022-08-09T14:50:09.518Z,5.18
2022-08-09T14:52:38.426Z,6.32
2022-08-09T14:55:07.021Z,5.65
2022-08-09T14:57:43.547Z,6.45
2022-08-09T15:00:12.736Z,11.05
2022-08-09T15:02:40.147Z,4.57
2022-08-09T15:05:08.385Z,13.82
2022-08-09T15:07:35.767Z,4.85
2022-08-09T15:10:10.593Z,4.85
2022-08-09T15:12:44.835Z,3.08
2022-08-09T15:15:12.987Z,4.57
2022-08-09T15:17:41.509Z,8.15
2022-08-09T15:20:11.779Z,10.57
2022-08-09T15:22:46.709Z,3.40
2022-08-09T15:25:40.887Z,5.57
2022-08-09T15:28:05.106Z,2.70
2022-08-09T15:31:01.020Z,2.28
2022-08-09T15:34:17.709Z,2.65
2022-08-09T15:36:28.490Z,3.22
2022-08-09T15:39:00.062Z,3.60
2022-08-09T15:41:30.990Z,2.75
2022-08-09T15:44:03.867Z,11.10
2022-08-09T15:46:34.091Z,9.00
2022-08-09T15:49:21.260Z,4.47
2022-08-09T15:52:03.230Z,2.45
2022-08-09T15:54:51.363Z,4.45
2022-08-09T15:57:35.147Z,2.90
2022-08-09T16:00:14.131Z,5.65
2022-08-09T16:02:53.522Z,2.55
2022-08-09T16:05:22.235Z,5.68
2022-08-09T16:07:50.877Z,5.03
2022-08-09T16:10:38.774Z,5.32
2022-08-09T16:13:20.793Z,5.47
2022-08-09T16:16:10.307Z,5.25
2022-08-09T16:18:44.730Z,4.93
2022-08-09T16:21:17.486Z,6.55
2022-08-09T16:23:54.955Z,6.55
2022-08-09T16:26:34.804Z,8.55
2022-08-09T16:29:11.120Z,9.80
2022-08-09T16:32:19.621Z,3.30
2022-08-09T16:34:44.812Z,7.07
2022-08-09T16:37:50.646Z,9.05
2022-08-09T16:40:10.219Z,6.57
2022-08-09T16:42:37.810Z,9.63
2022-08-09T16:45:07.782Z,3.75
2022-08-09T16:48:40.670Z,4.63
2022-08-09T16:50:31.615Z,3.22
2022-08-09T16:53:02.168Z,6.32
2022-08-09T16:55:31.428Z,6.50
2022-08-09T16:58:17.770Z,4.03
2022-08-09T17:00:48.310Z,5.82
2022-08-09T17:03:21.974Z,6.28
2022-08-09T17:06:07.004Z,4.10
2022-08-09T17:08:46.289Z,4.18
2022-08-09T17:11:39.967Z,15.25
2022-08-09T17:14:26.080Z,3.92
2022-08-09T17:17:01.426Z,5.22
2022-08-09T17:19:46.338Z,3.97
2022-08-09T17:22:28.667Z,6.28
2022-08-09T17:25:10.019Z,3.13
2022-08-09T17:27:39.963Z,5.72
2022-08-09T17:30:17.244Z,2.55
2022-08-09T17:32:47.266Z,4.90
2022-08-09T17:35:17.251Z,4.47
2022-08-09T17:38:11.243Z,5.03
2022-08-09T17:40:34.734Z,4.80
2022-08-09T17:43:33.154Z,4.05
2022-08-09T17:46:03.828Z,5.60
2022-08-09T17:51:10.111Z,3.42
2022-08-09T17:53:52.323Z,5.32
2022-08-09T17:56:35.673Z,3.70
2022-08-09T17:59:12.001Z,3.35
2022-08-09T18:02:10.828Z,5.22
2022-08-09T23:37:07.199Z,8.38
2022-08-09T23:39:34.228Z,7.18
2022-08-09T23:42:01.655Z,5.75
2022-08-09T23:44:29.616Z,6.35
2022-08-09T23:46:57.388Z,6.32
2022-08-09T23:49:25.793Z,6.95
2022-08-09T23:51:54.384Z,5.00
2022-08-09T23:54:26.640Z,4.75
2022-08-09T23:56:55.884Z,7.82
2022-08-09T23:59:24.631Z,6.53
